createdAt,value
2018-03-21T00:02:21.453Z,99821.03
2018-03-21T00:04:49.755Z,99825.50
2018-03-21T00:07:18.035Z,99829.55
2018-03-21T00:09:46.351Z,99829.33
2018-03-21T00:12:14.620Z,99837.03
2018-03-21T00:14:43.708Z,99832.15
2018-03-21T00:17:11.967Z,99833.55
2018-03-21T00:19:40.240Z,99838.69
2018-03-21T00:22:08.501Z,99843.01
2018-03-21T00:24:36.759Z,99847.16
2018-03-21T00:27:05.041Z,99842.48
2018-03-21T00:29:33.306Z,99845.44
2018-03-21T00:32:01.587Z,99843.55
2018-03-21T00:34:29.864Z,99846.73
2018-03-21T00:36:58.136Z,99844.53
2018-03-21T00:39:26.534Z,99840.80
2018-03-21T00:41:54.844Z,99844.70
2018-03-21T00:44:23.104Z,99850.05
2018-03-21T00:46:51.400Z,99848.69
2018-03-21T00:49:19.649Z,99849.34
2018-03-21T00:51:47.944Z,99848.76
2018-03-21T00:54:16.261Z,99854.46
2018-03-21T00:56:44.558Z,99850.42
2018-03-21T00:59:12.837Z,99853.16
2018-03-21T01:01:41.160Z,99833.72
2018-03-21T01:04:09.460Z,99857.04
2018-03-21T01:06:38.007Z,99860.28
2018-03-21T01:09:06.257Z,99864.52
2018-03-21T01:11:34.539Z,99866.04
2018-03-21T01:14:02.803Z,99868.08
2018-03-21T01:16:31.103Z,99868.54
2018-03-21T01:18:59.353Z,99862.78
2018-03-21T01:21:27.640Z,99860.27
2018-03-21T01:23:55.911Z,99865.14
2018-03-21T01:26:24.193Z,99866.77
2018-03-21T01:28:52.493Z,99863.94
2018-03-21T01:31:20.762Z,99872.50
2018-03-21T01:33:49.040Z,99866.72
2018-03-21T01:36:17.297Z,99858.89
2018-03-21T01:38:45.600Z,99861.92
2018-03-21T01:41:13.868Z,99877.73
2018-03-21T01:43:42.169Z,99870.75
2018-03-21T01:46:10.436Z,99876.08
2018-03-21T01:48:38.733Z,99873.85
2018-03-21T01:51:07.048Z,99872.08
2018-03-21T01:53:35.716Z,99870.42
2018-03-21T01:56:04.757Z,99867.14
2018-03-21T01:58:33.041Z,99871.59
2018-03-21T02:01:01.309Z,99881.61
2018-03-21T02:03:29.612Z,99879.73
2018-03-21T02:05:57.885Z,99879.51
2018-03-21T02:08:26.152Z,99878.30
2018-03-21T02:10:54.415Z,99878.60
2018-03-21T02:13:22.704Z,99872.88
2018-03-21T02:15:50.977Z,99875.84
2018-03-21T02:18:19.280Z,99877.08
2018-03-21T02:20:47.551Z,99873.61
2018-03-21T02:23:15.832Z,99873.98
2018-03-21T02:25:44.121Z,99870.72
2018-03-21T02:28:12.487Z,99873.02
2018-03-21T02:30:40.851Z,99872.14
2018-03-21T02:33:09.044Z,99876.08
2018-03-21T02:35:37.327Z,99878.08
2018-03-21T02:38:05.588Z,99873.97
2018-03-21T02:40:33.891Z,99874.86
2018-03-21T02:43:02.245Z,99879.39
2018-03-21T02:45:30.523Z,99879.56
2018-03-21T02:47:58.785Z,99881.31
2018-03-21T02:50:27.104Z,99886.41
2018-03-21T02:52:55.375Z,99884.76
2018-03-21T02:55:23.654Z,99887.61
2018-03-21T02:57:51.939Z,99889.90
2018-03-21T03:00:20.209Z,99889.08
2018-03-21T03:02:48.476Z,99887.00
2018-03-21T03:05:16.792Z,99881.18
2018-03-21T03:07:45.070Z,99877.18
2018-03-21T03:10:13.358Z,99888.05
2018-03-21T03:12:41.619Z,99885.57
2018-03-21T03:15:09.931Z,99887.63
2018-03-21T03:17:38.211Z,99883.93
2018-03-21T03:20:06.491Z,99887.84
2018-03-21T03:22:34.783Z,99898.12
2018-03-21T03:25:03.059Z,99891.36
2018-03-21T03:27:31.335Z,99896.95
2018-03-21T03:29:59.600Z,99903.70
2018-03-21T03:32:27.888Z,99897.16
2018-03-21T03:34:56.163Z,99904.01
2018-03-21T03:37:24.444Z,99903.45
2018-03-21T03:39:52.723Z,99909.00
2018-03-21T03:42:21.025Z,99908.72
2018-03-21T03:44:49.295Z,99901.41
2018-03-21T03:47:18.416Z,99906.83
2018-03-21T03:49:46.679Z,99902.12
2018-03-21T03:52:14.973Z,99900.32
2018-03-21T03:54:43.227Z,99895.28
2018-03-21T03:57:11.511Z,99898.59
2018-03-21T03:59:39.788Z,99905.89
2018-03-21T04:02:08.078Z,99909.63
2018-03-21T04:04:36.345Z,99906.58
2018-03-21T04:07:05.743Z,99913.31
2018-03-21T04:09:34.012Z,99908.90
2018-03-21T04:12:02.294Z,99909.17
2018-03-21T04:14:30.585Z,99915.28
2018-03-21T04:16:58.899Z,99919.77
2018-03-21T04:19:27.168Z,99917.01
2018-03-21T04:21:55.455Z,99923.70
2018-03-21T04:24:23.714Z,99930.34
2018-03-21T04:26:52.004Z,99923.78
2018-03-21T04:29:20.571Z,99920.70
2018-03-21T04:31:48.844Z,99921.62
2018-03-21T04:34:17.609Z,99925.91
2018-03-21T04:36:45.864Z,99925.69
2018-03-21T04:39:14.162Z,99921.73
2018-03-21T04:41:42.435Z,99920.67
2018-03-21T04:44:10.714Z,99929.91
2018-03-21T04:46:38.990Z,99924.73
2018-03-21T04:49:07.271Z,99930.74
2018-03-21T04:51:35.528Z,99923.67
2018-03-21T04:54:04.757Z,99918.08
2018-03-21T04:56:33.022Z,99929.20
2018-03-21T04:59:01.310Z,99931.00
2018-03-21T05:01:29.582Z,99934.47
2018-03-21T05:03:57.864Z,99922.07
2018-03-21T05:06:26.137Z,99929.28
2018-03-21T05:08:54.418Z,99933.05
2018-03-21T05:11:22.692Z,99932.41
2018-03-21T05:13:50.983Z,99929.81
2018-03-21T05:16:19.244Z,99928.76
2018-03-21T05:18:47.551Z,99933.05
2018-03-21T05:21:15.804Z,99941.77
2018-03-21T05:23:44.093Z,99937.09
2018-03-21T05:26:12.407Z,99943.39
2018-03-21T05:28:40.784Z,99947.23
2018-03-21T05:31:09.089Z,99949.00
2018-03-21T05:33:37.346Z,99946.50
2018-03-21T05:36:05.636Z,99952.50
2018-03-21T05:38:33.927Z,99946.52
2018-03-21T05:41:02.238Z,99952.34
2018-03-21T05:43:30.513Z,99954.11
2018-03-21T05:45:58.849Z,99958.88
2018-03-21T05:48:27.160Z,99961.91
2018-03-21T05:50:55.440Z,99958.00
2018-03-21T05:53:23.737Z,99963.76
2018-03-21T05:55:52.034Z,99963.02
2018-03-21T05:58:20.320Z,99970.80
2018-03-21T06:00:48.629Z,99967.41
2018-03-21T06:03:16.895Z,99977.03
2018-03-21T06:05:45.189Z,99978.40
2018-03-21T06:08:13.452Z,99980.59
2018-03-21T06:10:41.744Z,99983.41
2018-03-21T06:13:10.015Z,99985.20
2018-03-21T06:15:38.309Z,99984.83
2018-03-21T06:18:06.581Z,99985.87
2018-03-21T06:20:34.879Z,99988.14
2018-03-21T06:23:03.209Z,99981.31
2018-03-21T06:25:31.493Z,99995.83
2018-03-21T06:27:59.794Z,100002.02
2018-03-21T06:30:28.068Z,100005.41
2018-03-21T06:32:56.387Z,100008.06
2018-03-21T06:35:24.666Z,100015.03
2018-03-21T06:37:53.046Z,100001.75
2018-03-21T06:40:21.453Z,100012.99
2018-03-21T06:42:49.824Z,100015.11
2018-03-21T06:45:18.150Z,100017.75
2018-03-21T06:47:46.465Z,100027.39
2018-03-21T06:50:14.756Z,100019.92
2018-03-21T06:52:43.064Z,100029.65
2018-03-21T06:55:11.394Z,100027.57
2018-03-21T06:57:39.700Z,100027.97
2018-03-21T07:00:07.989Z,100031.04
2018-03-21T07:02:36.358Z,100034.38
2018-03-21T07:05:05.273Z,100039.00
2018-03-21T07:07:33.586Z,100046.02
2018-03-21T07:10:01.883Z,100045.20
2018-03-21T07:12:30.409Z,100051.54
2018-03-21T07:15:10.460Z,100053.23
2018-03-21T07:17:38.781Z,100058.82
2018-03-21T07:20:07.062Z,100055.31
2018-03-21T07:22:35.336Z,100059.58
2018-03-21T07:25:04.391Z,100045.58
2018-03-21T07:27:32.663Z,100066.21
2018-03-21T07:30:00.967Z,100066.33
2018-03-21T07:32:29.268Z,100068.39
2018-03-21T07:34:57.576Z,100070.36
2018-03-21T07:37:25.855Z,100072.18
2018-03-21T07:39:54.220Z,100076.45
2018-03-21T07:42:22.509Z,100075.05
2018-03-21T07:44:50.845Z,100086.67
2018-03-21T07:47:19.122Z,100083.31
2018-03-21T07:49:47.437Z,100087.77
2018-03-21T07:52:15.760Z,100086.81
2018-03-21T07:54:44.249Z,100087.45
2018-03-21T07:57:12.537Z,100089.11
2018-03-21T07:59:40.918Z,100087.95
2018-03-21T08:02:09.212Z,100089.95
2018-03-21T08:04:37.523Z,100089.03
2018-03-21T08:07:05.875Z,100093.10
2018-03-21T08:09:34.191Z,100094.91
2018-03-21T08:12:02.470Z,100097.31
2018-03-21T08:14:30.787Z,100102.05
2018-03-21T08:16:59.076Z,100104.30
2018-03-21T08:19:27.383Z,100098.19
2018-03-21T08:21:55.712Z,100105.45
2018-03-21T08:24:24.090Z,100103.77
2018-03-21T08:26:52.348Z,100101.87
2018-03-21T08:29:20.637Z,100102.31
2018-03-21T08:31:48.943Z,100100.83
2018-03-21T08:34:17.543Z,100112.39
2018-03-21T08:36:45.866Z,100118.28
2018-03-21T08:39:14.151Z,100115.98
2018-03-21T08:41:42.484Z,100117.19
2018-03-21T08:44:10.735Z,100116.72
2018-03-21T08:46:39.032Z,100115.42
2018-03-21T08:49:07.328Z,100110.84
2018-03-21T08:51:35.662Z,100103.98
2018-03-21T08:54:04.650Z,100119.30
2018-03-21T08:56:33.084Z,100102.18
2018-03-21T08:59:01.387Z,100110.75
2018-03-21T09:01:29.767Z,100117.98
2018-03-21T09:03:57.987Z,100120.14
2018-03-21T09:06:26.280Z,100114.52
2018-03-21T09:08:54.598Z,100117.08
2018-03-21T09:11:22.889Z,100117.31
2018-03-21T09:13:51.199Z,100098.79
2018-03-21T09:16:19.492Z,100115.70
2018-03-21T09:18:47.809Z,100111.55
2018-03-21T09:21:16.107Z,100117.92
2018-03-21T09:23:44.393Z,100104.47
2018-03-21T09:26:12.697Z,100118.97
2018-03-21T09:28:40.994Z,100115.14
2018-03-21T09:31:09.351Z,100112.55
2018-03-21T09:33:37.662Z,100114.56
2018-03-21T09:36:05.960Z,100108.30
2018-03-21T09:38:34.257Z,100088.16
2018-03-21T09:41:02.637Z,100099.59
2018-03-21T09:43:30.920Z,100103.74
2018-03-21T09:45:59.212Z,100099.77
2018-03-21T09:48:27.743Z,100106.95
2018-03-21T09:50:55.963Z,100103.02
2018-03-21T09:53:24.605Z,100102.41
2018-03-21T09:55:52.874Z,100116.56
2018-03-21T09:58:21.155Z,100109.38
2018-03-21T10:00:49.483Z,100116.58
2018-03-21T10:03:17.768Z,100104.92
2018-03-21T10:05:46.036Z,100105.13
2018-03-21T10:08:14.373Z,100110.47
2018-03-21T10:10:42.662Z,100110.88
2018-03-21T10:13:10.968Z,100109.86
2018-03-21T10:15:39.252Z,100105.82
2018-03-21T10:18:07.533Z,100101.37
2018-03-21T10:20:35.808Z,100102.72
2018-03-21T10:23:04.216Z,100096.88
2018-03-21T10:25:32.496Z,100103.77
2018-03-21T10:28:01.162Z,100102.34
2018-03-21T10:30:29.489Z,100109.52
2018-03-21T10:32:57.755Z,100104.39
2018-03-21T10:35:26.200Z,100100.68
2018-03-21T10:37:54.507Z,100100.08
2018-03-21T10:40:22.816Z,100108.64
2018-03-21T10:42:51.100Z,100094.55
2018-03-21T10:45:19.539Z,100103.15
2018-03-21T10:47:47.788Z,100105.77
2018-03-21T10:50:16.090Z,100094.81
2018-03-21T10:52:44.376Z,100106.33
2018-03-21T10:55:12.684Z,100113.88
2018-03-21T10:57:40.980Z,100109.79
2018-03-21T11:00:09.323Z,100097.65
2018-03-21T11:02:43.209Z,100094.63
2018-03-21T11:05:11.525Z,100093.48
2018-03-21T11:07:39.845Z,100094.63
2018-03-21T11:10:08.130Z,100090.69
2018-03-21T11:12:36.452Z,100087.96
2018-03-21T11:15:05.384Z,100085.77
2018-03-21T11:17:33.637Z,100088.59
2018-03-21T11:20:01.907Z,100090.72
2018-03-21T11:22:30.275Z,100087.04
2018-03-21T11:24:58.539Z,100077.38
2018-03-21T11:27:26.833Z,100085.73
2018-03-21T11:29:55.148Z,100081.09
2018-03-21T11:32:23.440Z,100082.67
2018-03-21T11:34:51.744Z,100082.88
2018-03-21T11:37:20.047Z,100079.00
2018-03-21T11:39:48.355Z,100078.28
2018-03-21T11:42:16.643Z,100083.95
2018-03-21T11:44:44.934Z,100079.59
2018-03-21T11:47:13.242Z,100077.41
2018-03-21T11:49:41.575Z,100068.11
2018-03-21T11:52:09.868Z,100074.72
2018-03-21T11:54:38.145Z,100060.36
2018-03-21T11:57:06.914Z,100069.14
2018-03-21T11:59:35.168Z,100064.50
2018-03-21T12:02:03.466Z,100069.22
2018-03-21T12:04:31.756Z,100063.87
2018-03-21T12:07:00.073Z,100065.21
2018-03-21T12:09:28.633Z,100065.88
2018-03-21T12:11:56.916Z,100063.54
2018-03-21T12:14:25.196Z,100067.64
2018-03-21T12:16:53.508Z,100062.97
2018-03-21T12:19:21.789Z,100079.27
2018-03-21T12:21:50.042Z,100046.41
2018-03-21T12:24:18.328Z,100047.55
2018-03-21T12:26:46.664Z,100041.41
2018-03-21T12:29:15.000Z,100038.44
2018-03-21T12:31:43.272Z,100030.93
2018-03-21T12:34:11.576Z,100038.97
2018-03-21T12:36:39.886Z,100027.50
2018-03-21T12:39:08.176Z,100035.28
2018-03-21T12:41:36.463Z,100035.14
2018-03-21T12:44:05.488Z,100033.63
2018-03-21T12:46:33.776Z,100034.63
2018-03-21T12:49:02.089Z,100033.53
2018-03-21T12:51:30.355Z,100020.73
2018-03-21T12:53:58.662Z,100022.65
2018-03-21T12:56:26.986Z,100028.88
2018-03-21T12:58:55.233Z,100030.11
2018-03-21T13:01:23.574Z,100028.70
2018-03-21T13:03:52.676Z,100027.78
2018-03-21T13:06:20.938Z,100018.66
2018-03-21T13:08:49.237Z,100028.89
2018-03-21T13:11:17.504Z,100010.16
2018-03-21T13:13:46.093Z,100011.20
2018-03-21T13:16:14.438Z,100011.73
2018-03-21T13:18:43.323Z,100013.63
2018-03-21T13:21:13.186Z,100019.91
2018-03-21T13:23:41.478Z,100021.44
2018-03-21T13:26:09.830Z,100016.22
2018-03-21T13:28:38.110Z,100003.97
2018-03-21T13:31:06.793Z,100007.03
2018-03-21T13:33:35.128Z,100002.80
2018-03-21T13:36:03.447Z,100002.71
2018-03-21T13:38:31.759Z,100000.26
2018-03-21T13:41:00.068Z,99997.41
2018-03-21T13:43:28.380Z,99995.13
2018-03-21T13:45:56.682Z,99994.36
2018-03-21T13:48:24.994Z,99997.08
2018-03-21T13:50:55.070Z,99999.05
2018-03-21T13:53:23.497Z,99985.19
2018-03-21T13:55:51.783Z,99997.88
2018-03-21T13:58:20.565Z,100000.58
2018-03-21T14:00:49.276Z,99985.82
2018-03-21T14:03:17.571Z,100002.08
2018-03-21T14:05:46.116Z,99987.80
2018-03-21T14:08:14.430Z,99995.30
2018-03-21T14:10:42.711Z,99990.75
2018-03-21T14:13:10.994Z,99974.22
2018-03-21T14:15:39.304Z,99987.44
2018-03-21T14:18:07.623Z,99983.33
2018-03-21T14:20:35.905Z,99985.73
2018-03-21T14:23:04.473Z,99970.77
2018-03-21T14:25:32.766Z,99976.63
2018-03-21T14:28:01.101Z,99968.72
2018-03-21T14:30:29.345Z,99971.13
2018-03-21T14:32:57.759Z,99978.19
2018-03-21T14:35:26.277Z,99964.72
2018-03-21T14:37:55.381Z,99973.34
2018-03-21T14:40:23.665Z,99967.05
2018-03-21T14:42:51.994Z,99966.27
2018-03-21T14:45:20.883Z,99965.80
2018-03-21T14:47:49.203Z,99960.84
2018-03-21T14:50:17.492Z,99956.91
2018-03-21T14:52:45.805Z,99954.80
2018-03-21T14:55:14.065Z,99945.30
2018-03-21T14:57:42.411Z,99946.91
2018-03-21T15:00:10.804Z,99949.22
2018-03-21T15:02:39.064Z,99955.61
2018-03-21T15:05:07.451Z,99909.55
2018-03-21T15:07:35.732Z,99948.27
2018-03-21T15:10:04.944Z,99945.82
2018-03-21T15:12:33.192Z,99945.13
2018-03-21T15:15:01.476Z,99945.39
2018-03-21T15:17:29.828Z,99938.98
2018-03-21T15:19:58.123Z,99948.67
2018-03-21T15:22:26.413Z,99940.13
2018-03-21T15:24:54.713Z,99947.80
2018-03-21T15:27:22.989Z,99953.19
2018-03-21T15:29:51.329Z,99954.61
2018-03-21T15:32:19.613Z,99953.84
2018-03-21T15:34:47.903Z,99958.53
2018-03-21T15:37:16.208Z,99948.66
2018-03-21T15:39:44.495Z,99934.22
2018-03-21T15:42:12.767Z,99946.23
2018-03-21T15:44:41.099Z,99943.19
2018-03-21T15:47:09.372Z,99934.25
2018-03-21T15:49:37.651Z,99929.95
2018-03-21T15:52:05.919Z,99927.43
2018-03-21T15:54:34.204Z,99929.09
2018-03-21T15:57:02.584Z,99926.94
2018-03-21T15:59:32.630Z,99930.91
2018-03-21T16:02:01.400Z,99922.32
2018-03-21T16:04:29.713Z,99920.98
2018-03-21T16:06:58.063Z,99916.73
2018-03-21T16:09:26.459Z,99921.12
2018-03-21T16:11:54.722Z,99924.95
2018-03-21T16:14:23.069Z,99928.25
2018-03-21T16:16:51.378Z,99928.12
2018-03-21T16:19:19.711Z,99925.28
2018-03-21T16:21:47.976Z,99932.19
2018-03-21T16:24:16.303Z,99922.80
2018-03-21T16:26:44.603Z,99921.99
2018-03-21T16:29:12.855Z,99928.31
2018-03-21T16:31:41.211Z,99926.78
2018-03-21T16:34:09.488Z,99925.77
2018-03-21T16:36:37.848Z,99923.88
2018-03-21T16:39:06.142Z,99925.57
2018-03-21T16:41:35.121Z,99927.41
2018-03-21T16:44:03.381Z,99933.31
2018-03-21T16:46:32.160Z,99933.91
2018-03-21T16:49:00.561Z,99941.16
2018-03-21T16:51:28.873Z,99940.28
2018-03-21T16:53:57.148Z,99942.86
2018-03-21T16:56:25.548Z,99944.81
2018-03-21T16:58:53.841Z,99945.89
2018-03-21T17:01:22.180Z,99950.91
2018-03-21T17:03:50.632Z,99949.52
2018-03-21T17:06:18.942Z,99943.02
2018-03-21T17:08:47.243Z,99940.48
2018-03-21T17:11:15.512Z,99935.27
2018-03-21T17:13:43.798Z,99944.52
2018-03-21T17:16:12.235Z,99941.16
2018-03-21T17:18:40.574Z,99941.78
2018-03-21T17:21:08.817Z,99947.28
2018-03-21T17:23:37.451Z,99947.41
2018-03-21T17:26:05.738Z,99948.14
2018-03-21T17:28:34.628Z,99946.16
2018-03-21T17:31:02.963Z,99948.72
2018-03-21T17:33:31.280Z,99949.20
2018-03-21T17:35:59.933Z,99951.88
2018-03-21T17:38:28.272Z,99944.52
2018-03-21T17:40:56.555Z,99939.41
2018-03-21T17:43:24.925Z,99937.96
2018-03-21T17:45:53.202Z,99940.42
2018-03-21T17:48:21.529Z,99947.35
2018-03-21T17:50:49.792Z,99937.98
2018-03-21T17:53:19.066Z,99930.61
2018-03-21T17:55:47.324Z,99937.64
2018-03-21T17:58:15.630Z,99922.88
2018-03-21T18:00:43.932Z,99939.98
2018-03-21T18:03:12.240Z,99936.87
2018-03-21T18:05:40.519Z,99939.27
2018-03-21T18:08:08.841Z,99938.69
2018-03-21T18:10:37.091Z,99932.16
2018-03-21T18:13:06.023Z,99927.91
2018-03-21T18:15:34.330Z,99926.91
2018-03-21T18:18:02.612Z,99935.43
2018-03-21T18:20:30.952Z,99940.67
2018-03-21T18:22:59.240Z,99932.70
2018-03-21T18:25:27.489Z,99938.79
2018-03-21T18:27:55.766Z,99943.72
2018-03-21T18:30:24.115Z,99941.01
2018-03-21T18:32:52.406Z,99945.95
2018-03-21T18:35:20.779Z,99948.08
2018-03-21T18:37:49.620Z,99951.29
2018-03-21T18:40:17.902Z,99948.19
2018-03-21T18:42:46.211Z,99952.28
2018-03-21T18:45:14.553Z,99948.37
2018-03-21T18:47:42.810Z,99954.75
2018-03-21T18:50:11.159Z,99952.95
2018-03-21T18:52:39.481Z,99956.95
2018-03-21T18:55:07.885Z,99962.17
2018-03-21T18:57:36.137Z,99956.50
2018-03-21T19:00:04.990Z,99945.20
2018-03-21T19:02:33.358Z,99962.81
2018-03-21T19:05:01.967Z,99971.78
2018-03-21T19:07:30.244Z,99962.48
2018-03-21T19:09:58.566Z,99964.64
2018-03-21T19:12:26.968Z,99961.30
2018-03-21T19:14:55.282Z,99956.97
2018-03-21T19:17:23.543Z,99953.78
2018-03-21T19:19:51.886Z,99959.20
2018-03-21T19:22:20.202Z,99963.22
2018-03-21T19:24:48.509Z,99956.20
2018-03-21T19:27:16.806Z,99960.20
2018-03-21T19:29:45.070Z,99955.97
2018-03-21T19:32:13.381Z,99958.09
2018-03-21T19:34:42.400Z,99967.97
2018-03-21T19:37:11.066Z,99954.25
2018-03-21T19:39:39.368Z,99962.16
2018-03-21T19:42:07.658Z,99963.97
2018-03-21T19:44:36.845Z,99965.78
2018-03-21T19:47:05.808Z,99965.17
2018-03-21T19:49:34.107Z,99959.02
2018-03-21T19:52:02.473Z,99964.02
2018-03-21T19:54:30.758Z,99971.87
2018-03-21T19:56:59.061Z,99964.09
2018-03-21T19:59:27.353Z,99964.00
2018-03-21T20:01:55.982Z,99959.17
2018-03-21T20:04:24.343Z,99961.82
2018-03-21T20:06:52.769Z,99952.95
2018-03-21T20:09:21.016Z,99958.48
2018-03-21T20:11:49.432Z,99954.95
2018-03-21T20:14:17.697Z,99951.33
2018-03-21T20:16:46.019Z,99948.37
2018-03-21T20:19:14.347Z,99948.58
2018-03-21T20:21:42.630Z,99928.06
2018-03-21T20:24:10.889Z,99946.07
2018-03-21T20:26:39.177Z,99942.23
2018-03-21T20:29:07.485Z,99945.77
2018-03-21T20:31:35.744Z,99943.01
2018-03-21T20:34:05.066Z,99931.95
2018-03-21T20:36:33.363Z,99928.38
2018-03-21T20:39:01.675Z,99930.33
2018-03-21T20:41:29.931Z,99919.14
2018-03-21T20:43:59.114Z,99925.30
2018-03-21T20:46:27.375Z,99914.28
2018-03-21T20:48:55.705Z,99931.55
2018-03-21T20:51:23.971Z,99930.40
2018-03-21T20:53:52.290Z,99924.85
2018-03-21T20:56:20.621Z,99926.24
2018-03-21T20:58:48.907Z,99933.74
2018-03-21T21:01:17.190Z,99923.66
2018-03-21T21:03:45.513Z,99927.63
2018-03-21T21:06:14.114Z,99924.89
2018-03-21T21:08:42.665Z,99922.89
2018-03-21T21:11:11.337Z,99922.48
2018-03-21T21:13:39.645Z,99924.48
2018-03-21T21:16:08.063Z,99928.52
2018-03-21T21:18:36.378Z,99921.59
2018-03-21T21:21:05.305Z,99923.78
2018-03-21T21:23:33.668Z,99922.69
2018-03-21T21:26:02.098Z,99923.22
2018-03-21T21:28:30.870Z,99920.65
2018-03-21T21:31:03.090Z,99918.69
2018-03-21T21:33:31.524Z,99918.69
2018-03-21T21:35:59.825Z,99918.16
2018-03-21T21:38:28.111Z,99918.16
2018-03-21T21:40:56.415Z,99895.52
2018-03-21T21:43:24.728Z,99917.78
2018-03-21T21:45:53.053Z,99918.94
2018-03-21T21:48:21.335Z,99929.02
2018-03-21T21:50:49.613Z,99938.05
2018-03-21T21:53:17.913Z,99933.37
2018-03-21T21:55:46.234Z,99941.61
2018-03-21T21:58:14.576Z,99938.91
2018-03-21T22:00:42.922Z,99929.60
2018-03-21T22:03:11.196Z,99937.11
2018-03-21T22:05:39.513Z,99936.42
2018-03-21T22:08:07.919Z,99935.20
2018-03-21T22:10:36.320Z,99928.50
2018-03-21T22:13:04.939Z,99913.88
2018-03-21T22:15:33.357Z,99923.75
2018-03-21T22:18:01.611Z,99918.88
2018-03-21T22:20:29.943Z,99916.00
2018-03-21T22:22:58.237Z,99909.06
2018-03-21T22:25:26.517Z,99912.91
2018-03-21T22:27:54.769Z,99907.27
2018-03-21T22:30:23.087Z,99907.12
2018-03-21T22:32:51.348Z,99907.02
2018-03-21T22:35:19.620Z,99900.89
2018-03-21T22:37:47.968Z,99898.95
2018-03-21T22:40:16.263Z,99891.70
2018-03-21T22:42:44.631Z,99884.33
2018-03-21T22:45:12.886Z,99889.93
2018-03-21T22:47:41.186Z,99884.78
2018-03-21T22:50:09.464Z,99884.83
2018-03-21T22:52:37.744Z,99882.05
2018-03-21T22:55:05.999Z,99876.66
2018-03-21T22:57:34.320Z,99863.25
2018-03-21T23:00:02.583Z,99866.10
2018-03-21T23:02:30.891Z,99873.18
2018-03-21T23:04:59.152Z,99870.67
2018-03-21T23:07:27.515Z,99869.00
2018-03-21T23:09:55.777Z,99857.98
2018-03-21T23:12:24.299Z,99852.12
2018-03-21T23:14:52.612Z,99848.02
2018-03-21T23:17:20.914Z,99837.64
2018-03-21T23:19:49.586Z,99843.81
2018-03-21T23:22:17.946Z,99844.17
2018-03-21T23:24:46.259Z,99829.31
2018-03-21T23:27:14.536Z,99831.78
2018-03-21T23:29:42.811Z,99830.96
2018-03-21T23:32:11.091Z,99831.52
2018-03-21T23:34:39.407Z,99836.43
2018-03-21T23:37:07.756Z,99826.09
2018-03-21T23:39:36.091Z,99823.28
2018-03-21T23:42:04.408Z,99817.44
2018-03-21T23:44:32.732Z,99807.82
2018-03-21T23:47:01.035Z,99803.18
2018-03-21T23:49:29.403Z,99810.72
2018-03-21T23:51:57.685Z,99806.53
2018-03-21T23:54:25.979Z,99797.92
2018-03-21T23:56:54.269Z,99799.91
2018-03-21T23:59:22.532Z,99794.08
